Time;durP1;ratioP1;P1;durP2;ratioP2;P2;SDS_P1;SDS_P2;PMS_P1;PMS_P2;Temp;Humidity;BMP_temperature;BMP_pressure;BME280_temperature;BME280_humidity;BME280_pressure;Samples;Min_cycle;Max_cycle;Signal;HPM_P1;HPM_P2
2021/06/09 00:01:46;;;;;;;19.08;14.02;;;16.80;78.50;;;15.73;75.15;96394.41;4991603;28;20107;-69
2021/06/09 00:04:12;;;;;;;15.48;13.65;;;16.80;78.50;;;15.70;74.50;96390.34;4993679;28;20393;-68
2021/06/09 00:06:38;;;;;;;17.35;13.15;;;16.80;78.40;;;15.67;74.72;96385.47;4976069;28;20069;-71
2021/06/09 00:09:05;;;;;;;15.43;13.82;;;16.80;78.30;;;15.64;75.01;96391.22;4976101;28;20031;-68
2021/06/09 00:11:31;;;;;;;15.30;13.20;;;16.70;78.50;;;15.59;75.36;96378.56;4991789;28;20037;-68
2021/06/09 00:13:57;;;;;;;15.77;14.07;;;16.70;78.70;;;15.58;74.89;96384.06;4959978;28;20400;-69
2021/06/09 00:16:23;;;;;;;14.95;13.45;;;16.70;78.60;;;15.55;75.52;96381.84;4990357;28;20479;-69
2021/06/09 00:18:49;;;;;;;16.23;14.15;;;16.70;78.80;;;15.55;74.62;96379.19;4994469;28;20088;-69
2021/06/09 00:21:16;;;;;;;15.02;12.98;;;16.70;78.70;;;15.55;75.50;96381.84;4978880;28;20489;-68
2021/06/09 00:23:42;;;;;;;15.73;14.13;;;16.70;78.60;;;15.54;74.72;96380.22;5008480;28;20060;-70
2021/06/09 00:26:08;;;;;;;15.60;13.68;;;16.70;78.50;;;15.52;75.79;96377.78;5007119;28;20504;-68
2021/06/09 00:28:34;;;;;;;17.42;13.73;;;16.70;78.30;;;15.51;75.68;96376.16;4983778;28;20033;-71
2021/06/09 00:31:04;;;;;;;15.60;14.00;;;16.70;78.40;;;15.50;75.23;96379.00;4993729;28;20441;-71
2021/06/09 00:33:30;;;;;;;14.90;13.38;;;16.70;78.50;;;15.49;75.29;96377.38;5009299;28;20036;-71
2021/06/09 00:35:57;;;;;;;15.07;13.27;;;16.70;78.40;;;15.48;75.64;96375.75;4989057;28;20034;-70
2021/06/09 00:38:23;;;;;;;15.05;13.60;;;16.70;78.30;;;15.46;75.33;96377.81;5005346;28;20042;-69
2021/06/09 00:40:49;;;;;;;16.33;13.95;;;16.60;78.40;;;15.44;75.11;96380.69;4975544;28;20188;-68
2021/06/09 00:43:19;;;;;;;16.40;14.73;;;16.60;78.60;;;15.42;75.46;96376.63;5006713;28;20042;-71
2021/06/09 00:45:54;;;;;;;16.43;13.80;;;16.50;78.80;;;15.38;76.91;96376.22;5009327;28;20065;-69
2021/06/09 00:48:24;;;;;;;16.13;14.50;;;16.50;78.90;;;15.35;75.29;96370.53;4991412;28;20334;-70
2021/06/09 00:50:50;;;;;;;16.58;14.85;;;16.40;78.90;;;15.31;75.58;96378.09;4993304;28;20030;-71
2021/06/09 00:56:14;;;;;;;15.93;14.20;;;16.50;79.00;;;15.27;75.66;96375.06;4990440;28;20033;-71
2021/06/09 00:58:42;;;;;;;15.95;14.35;;;16.40;79.10;;;15.25;75.59;96371.81;4992855;28;20117;-70
2021/06/09 01:01:09;;;;;;;16.80;15.05;;;16.40;79.20;;;15.20;76.14;96368.97;4977442;28;20089;-68
2021/06/09 01:03:35;;;;;;;16.25;14.50;;;16.50;79.40;;;15.19;75.89;96371.84;4988807;28;20040;-71
2021/06/09 01:06:03;;;;;;;17.42;14.80;;;16.40;79.30;;;15.15;75.30;96368.78;4974765;28;20057;-66
2021/06/09 01:08:33;;;;;;;16.90;15.27;;;16.40;79.50;;;15.15;76.17;96375.91;4992785;28;20057;-70
2021/06/09 01:10:59;;;;;;;18.50;14.57;;;16.40;79.40;;;15.12;75.93;96377.16;4977210;28;20030;-69
2021/06/09 01:13:26;;;;;;;16.45;14.73;;;16.30;79.40;;;15.07;76.23;96369.03;4992516;28;20042;-68
2021/06/09 01:15:51;;;;;;;16.65;15.05;;;16.30;79.30;;;15.06;77.13;96372.69;4978186;28;20045;-70
2021/06/09 01:18:17;;;;;;;17.15;15.35;;;16.30;79.50;;;15.04;76.53;96373.94;4990547;28;20062;-71
2021/06/09 01:20:44;;;;;;;16.77;14.82;;;16.20;79.70;;;15.04;76.49;96374.75;4993816;28;20041;-69
2021/06/09 01:23:10;;;;;;;17.27;15.57;;;16.20;79.70;;;15.03;76.10;96378.41;4986020;28;20034;-70
2021/06/09 01:25:36;;;;;;;19.42;14.70;;;16.20;79.90;;;15.01;76.33;96376.00;4988424;28;20038;-70
2021/06/09 01:28:02;;;;;;;16.90;15.00;;;16.20;79.90;;;15.00;76.11;96369.06;4991431;28;20460;-69
2021/06/09 01:30:28;;;;;;;17.23;15.43;;;16.20;79.90;;;14.98;77.10;96381.72;4973658;28;20109;-68
2021/06/09 01:32:54;;;;;;;18.02;15.77;;;16.20;79.90;;;14.96;77.21;96370.50;4976769;28;20058;-68
2021/06/09 01:35:20;;;;;;;17.15;15.38;;;16.10;79.80;;;14.94;76.78;96371.75;5008715;28;20493;-71
2021/06/09 01:37:46;;;;;;;19.95;15.57;;;16.10;80.00;;;14.93;77.39;96370.91;4989630;28;20155;-71
2021/06/09 01:40:15;;;;;;;17.13;15.32;;;16.10;80.20;;;14.94;77.27;96369.09;5006354;28;20033;-68
2021/06/09 01:42:42;;;;;;;18.55;16.65;;;16.10;80.10;;;14.93;77.02;96370.09;4987092;28;20104;-70
2021/06/09 01:45:11;;;;;;;17.55;15.45;;;16.10;80.20;;;14.90;77.58;96368.69;4989724;28;20049;-70
2021/06/09 01:47:36;;;;;;;18.25;16.33;;;16.10;80.20;;;14.88;77.34;96372.56;4995085;28;20044;-69
2021/06/09 01:50:05;;;;;;;18.40;16.52;;;16.10;80.20;;;14.87;77.48;96377.03;4974030;28;20074;-70
2021/06/09 01:52:31;;;;;;;20.25;16.70;;;16.10;80.30;;;14.87;77.39;96373.59;4999467;28;20030;-70
2021/06/09 01:54:56;;;;;;;17.63;15.82;;;16.10;80.50;;;14.85;77.39;96368.50;4990841;28;20429;-70
2021/06/09 01:57:22;;;;;;;17.63;15.82;;;16.10;80.40;;;14.84;76.95;96376.66;4990950;28;20455;-68
2021/06/09 01:59:48;;;;;;;17.00;15.30;;;16.10;80.30;;;14.82;78.00;96376.06;4988872;28;20168;-71
2021/06/09 02:02:13;;;;;;;18.08;15.80;;;16.10;80.40;;;14.79;78.46;96373.81;5003094;28;20096;-70
2021/06/09 02:04:41;;;;;;;17.48;15.77;;;16.00;80.50;;;14.81;78.16;96382.38;4991800;28;20061;-69
2021/06/09 02:07:07;;;;;;;18.55;16.65;;;16.10;80.50;;;14.80;77.88;96378.09;4988834;28;20042;-69
2021/06/09 02:09:34;;;;;;;17.60;15.80;;;16.00;80.50;;;14.80;77.78;96370.16;4973130;28;20034;-70
2021/06/09 02:12:00;;;;;;;17.20;15.50;;;16.10;80.50;;;14.78;77.71;96370.38;4994023;28;20033;-70
2021/06/09 02:14:26;;;;;;;16.88;14.98;;;16.00;80.40;;;14.75;78.08;96365.47;4999172;28;20084;-68
2021/06/09 02:16:51;;;;;;;18.35;16.45;;;16.00;80.40;;;14.72;78.48;96359.78;5003114;28;20436;-70
2021/06/09 02:19:17;;;;;;;19.27;17.23;;;16.00;80.40;;;14.72;78.07;96371.19;4991204;28;20088;-70
2021/06/09 02:21:44;;;;;;;18.70;16.90;;;15.90;80.40;;;14.66;77.72;96362.22;4993625;28;20837;-69
2021/06/09 02:24:10;;;;;;;20.88;18.83;;;15.90;80.30;;;14.66;77.43;96364.88;4978724;28;20071;-70
2021/06/09 02:26:38;;;;;;;24.73;22.17;;;16.00;80.50;;;14.66;77.78;96366.72;4988993;28;20045;-69
2021/06/09 02:29:05;;;;;;;25.38;22.70;;;15.90;80.60;;;14.65;77.84;96357.16;4986212;28;20117;-68
2021/06/09 02:31:30;;;;;;;23.67;21.35;;;15.90;80.80;;;14.63;78.27;96367.94;5003252;28;20022;-70
2021/06/09 02:33:56;;;;;;;29.48;26.27;;;15.90;81.00;;;14.62;77.79;96366.31;4992296;28;20456;-69
2021/06/09 02:36:23;;;;;;;25.38;22.67;;;15.80;81.20;;;14.62;78.36;96366.31;4992444;28;20057;-68
2021/06/09 02:38:49;;;;;;;25.40;22.70;;;15.90;81.00;;;14.62;78.40;96376.91;4972186;28;20064;-69
2021/06/09 02:41:15;;;;;;;20.15;18.15;;;15.80;81.10;;;14.61;78.23;96377.94;4988957;28;20148;-69
2021/06/09 02:43:41;;;;;;;20.98;18.42;;;15.90;81.00;;;14.62;78.30;96374.25;4988153;28;20370;-69
2021/06/09 02:46:22;;;;;;;22.30;17.98;;;15.90;81.10;;;14.63;79.66;96362.66;4991692;28;20037;-69
2021/06/09 02:48:54;;;;;;;20.63;18.40;;;16.00;81.00;;;14.63;79.88;96367.94;5007615;28;20780;-68
2021/06/09 02:51:20;;;;;;;20.45;18.10;;;15.90;80.90;;;14.62;78.15;96366.31;4990667;28;20030;-68
2021/06/09 02:54:09;;;;;;;23.67;21.17;;;16.00;80.50;;;14.62;79.57;96368.97;4965946;28;20109;-68
2021/06/09 02:56:58;;;;;;;25.15;22.33;;;16.00;80.50;;;14.59;78.66;96369.38;4974894;28;20042;-69
2021/06/09 02:59:54;;;;;;;25.50;22.70;;;15.90;80.40;;;14.60;79.52;96373.66;5004773;28;20050;-68
2021/06/09 03:02:46;;;;;;;23.13;18.88;;;15.80;80.40;;;14.58;79.21;96378.34;4993635;28;20041;-68
2021/06/09 03:05:16;;;;;;;20.40;18.20;;;15.80;80.60;;;14.54;79.59;96377.16;4990373;28;20046;-71
2021/06/09 03:08:15;;;;;;;21.35;19.05;;;15.80;80.70;;;14.51;80.27;96372.25;4997861;28;21826;-68
2021/06/09 03:10:53;;;;;;;21.20;19.02;;;15.70;80.60;;;14.48;79.83;96375.28;5003548;28;20044;-69
2021/06/09 03:16:37;;;;;;;22.80;19.67;;;15.70;80.90;;;14.42;80.13;96368.16;4987741;28;20106;-69
2021/06/09 03:19:10;;;;;;;21.02;19.02;;;15.70;80.80;;;14.40;79.06;96367.56;5007176;28;20512;-69
2021/06/09 03:22:13;;;;;;;22.10;19.80;;;15.70;80.80;;;14.38;79.99;96359.00;4989079;28;20066;-69
2021/06/09 03:24:43;;;;;;;21.25;19.10;;;15.60;80.80;;;14.34;78.92;96360.44;4986289;28;20065;-68
2021/06/09 03:27:39;;;;;;;22.00;19.70;;;15.70;80.80;;;14.31;80.25;96358.22;4988281;28;20452;-69
2021/06/09 03:30:08;;;;;;;21.95;19.75;;;15.60;81.00;;;14.28;78.85;96367.38;4987784;28;20045;-67
2021/06/09 03:33:08;;;;;;;21.85;19.70;;;15.60;81.00;;;14.25;80.36;96367.78;4991340;28;20026;-69
2021/06/09 03:36:06;;;;;;;22.63;20.00;;;15.60;81.20;;;14.25;80.48;96369.59;5001827;28;20153;-68
2021/06/09 03:38:35;;;;;;;22.80;19.40;;;15.60;81.00;;;14.25;79.15;96377.53;5002846;28;20041;-68
2021/06/09 03:41:05;;;;;;;22.65;20.35;;;15.50;81.10;;;14.24;79.46;96367.97;5004914;28;20120;-70
2021/06/09 03:43:34;;;;;;;22.45;20.15;;;15.60;81.20;;;14.26;79.20;96372.06;5004326;28;20030;-68
2021/06/09 03:46:00;;;;;;;22.98;20.67;;;15.60;81.00;;;14.27;78.93;96383.47;5005172;28;20030;-69
2021/06/09 03:48:29;;;;;;;21.88;19.67;;;15.60;81.00;;;14.27;79.10;96380.81;5005191;28;20133;-68
2021/06/09 03:50:55;;;;;;;23.40;19.95;;;15.60;81.00;;;14.27;78.87;96367.59;5005605;28;21603;-68
2021/06/09 03:53:22;;;;;;;25.35;21.35;;;15.60;80.80;;;14.27;78.91;96386.13;5006987;28;20057;-70
2021/06/09 03:55:47;;;;;;;22.88;20.55;;;15.60;81.10;;;14.26;78.92;96366.78;4987794;28;20040;-69
2021/06/09 03:58:15;;;;;;;25.35;21.27;;;15.60;81.00;;;14.25;78.60;96366.94;4979537;28;20026;-69
2021/06/09 04:00:41;;;;;;;25.80;20.60;;;15.60;81.30;;;14.24;79.34;96370.63;5003076;28;20027;-69
2021/06/09 04:03:07;;;;;;;23.42;20.92;;;15.50;81.40;;;14.20;79.36;96366.75;4991007;28;20046;-68
2021/06/09 04:05:33;;;;;;;24.30;21.73;;;15.40;82.10;;;14.17;78.66;96367.19;4988264;28;20049;-67
2021/06/09 04:07:59;;;;;;;25.15;22.40;;;15.40;82.30;;;14.15;79.39;96380.59;5008710;28;20129;-70
2021/06/09 04:10:25;;;;;;;26.88;21.52;;;15.40;82.40;;;14.17;79.76;96380.41;5009106;28;20469;-68
2021/06/09 04:12:51;;;;;;;24.65;21.85;;;15.50;82.20;;;14.17;79.63;96378.56;4961182;28;20045;-72
2021/06/09 04:15:18;;;;;;;24.48;21.98;;;15.60;82.10;;;14.20;79.31;96377.34;4976575;28;20060;-70
2021/06/09 04:17:45;;;;;;;24.42;21.90;;;15.60;82.00;;;14.20;80.35;96374.69;5004014;28;20037;-68
2021/06/09 04:20:11;;;;;;;23.25;20.83;;;15.60;82.00;;;14.21;80.63;96373.69;4983049;28;20026;-69
2021/06/09 04:22:37;;;;;;;25.48;22.83;;;15.60;81.80;;;14.23;79.66;96384.88;4993065;28;20033;-71
2021/06/09 04:25:05;;;;;;;26.48;23.67;;;15.60;81.70;;;14.21;79.87;96382.44;4993476;28;20153;-68
2021/06/09 04:27:33;;;;;;;26.40;22.63;;;15.60;82.00;;;14.24;80.54;96389.16;5008222;28;20030;-69
2021/06/09 04:29:58;;;;;;;22.42;20.02;;;15.60;81.80;;;14.26;80.27;96389.78;4990724;28;20527;-70
2021/06/09 04:32:25;;;;;;;24.75;20.15;;;15.70;81.60;;;14.29;80.11;96392.00;4985868;28;21106;-75
2021/06/09 04:34:53;;;;;;;22.33;20.10;;;15.70;81.40;;;14.29;80.43;96376.94;4979591;28;20042;-75
2021/06/09 04:37:24;;;;;;;21.85;19.55;;;15.70;81.40;;;14.33;80.73;96393.22;4979542;28;20038;-78
2021/06/09 04:39:50;;;;;;;24.15;21.65;;;15.80;81.30;;;14.35;80.09;96385.88;4978394;28;20125;-70
2021/06/09 04:42:16;;;;;;;22.95;20.65;;;15.80;81.20;;;14.38;80.13;96388.13;4991029;28;20117;-70
2021/06/09 04:44:42;;;;;;;22.15;19.85;;;15.90;80.90;;;14.41;79.34;96388.53;4977751;28;20121;-69
2021/06/09 04:47:08;;;;;;;21.92;19.77;;;15.90;80.70;;;14.44;80.14;96389.97;4998809;28;20029;-69
2021/06/09 04:49:45;;;;;;;22.48;20.08;;;15.90;80.90;;;14.47;80.15;96386.91;4993303;28;20034;-71
2021/06/09 04:52:11;;;;;;;21.38;18.80;;;15.90;81.00;;;14.49;79.57;96382.25;4991750;28;20112;-71
2021/06/09 04:54:37;;;;;;;22.05;19.77;;;16.00;80.80;;;14.54;79.50;96389.56;4993866;28;20092;-72
2021/06/09 04:57:04;;;;;;;21.75;18.80;;;16.10;80.80;;;14.57;79.48;96389.97;4992418;28;20056;-69
2021/06/09 04:59:30;;;;;;;22.80;20.50;;;16.10;80.50;;;14.62;80.29;96382.22;4980219;28;20037;-70
2021/06/09 05:01:56;;;;;;;21.95;19.40;;;16.20;80.60;;;14.69;79.76;96390.13;4994231;28;20112;-70
2021/06/09 05:04:22;;;;;;;21.45;19.00;;;16.30;80.30;;;14.71;79.98;96388.13;5003740;28;20142;-71
2021/06/09 05:06:47;;;;;;;21.63;19.42;;;16.20;80.60;;;14.76;79.76;96382.19;4990707;28;20053;-69
2021/06/09 05:09:13;;;;;;;23.38;20.98;;;16.30;80.90;;;14.83;79.93;96377.69;4993052;28;20501;-70
2021/06/09 05:11:57;;;;;;;21.83;19.52;;;16.40;80.80;;;14.92;81.13;96377.22;4980921;28;20049;-69
2021/06/09 05:14:59;;;;;;;21.45;19.15;;;16.60;80.70;;;15.07;81.33;96381.47;4990018;28;20034;-72
2021/06/09 05:17:28;;;;;;;20.45;18.35;;;16.70;80.40;;;15.11;80.30;96380.00;5004736;28;20045;-69
2021/06/09 05:19:54;;;;;;;22.35;20.13;;;16.70;80.60;;;15.19;79.86;96377.97;4997604;28;20041;-72
2021/06/09 05:22:36;;;;;;;21.10;18.95;;;16.80;80.50;;;15.28;80.40;96376.69;4988768;28;20061;-73
2021/06/09 05:25:06;;;;;;;21.08;18.88;;;16.90;80.20;;;15.35;80.20;96370.53;4997347;28;20073;-69
2021/06/09 05:27:32;;;;;;;21.40;19.15;;;16.90;80.00;;;15.41;79.35;96375.81;4995727;28;20331;-77
2021/06/09 05:29:57;;;;;;;22.25;19.95;;;17.00;79.50;;;15.49;79.71;96372.09;4977614;28;20549;-74
2021/06/09 05:32:23;;;;;;;20.92;18.83;;;17.10;79.80;;;15.55;79.57;96376.53;4976001;28;20046;-75
2021/06/09 05:34:49;;;;;;;22.40;18.13;;;17.20;79.60;;;15.65;80.03;96371.63;4996862;28;20045;-76
2021/06/09 05:37:15;;;;;;;21.42;19.13;;;17.40;79.00;;;15.71;79.81;96377.91;4975176;28;20136;-76
2021/06/09 05:39:41;;;;;;;20.65;18.00;;;17.50;78.80;;;15.80;78.93;96376.59;4978158;28;20034;-74
2021/06/09 05:42:13;;;;;;;19.92;17.50;;;17.60;78.30;;;15.86;79.58;96379.22;4983896;28;20423;-69
2021/06/09 05:44:43;;;;;;;20.00;17.85;;;17.60;78.00;;;15.92;79.09;96378.38;4974616;28;20072;-76
2021/06/09 05:47:09;;;;;;;20.25;18.13;;;17.70;78.00;;;16.04;79.66;96380.31;4980102;28;20122;-69
2021/06/09 05:49:35;;;;;;;20.55;18.05;;;18.00;77.90;;;16.15;79.24;96371.66;4987826;28;20092;-67
2021/06/09 05:52:01;;;;;;;19.95;17.48;;;18.10;76.80;;;16.23;78.76;96379.34;4973003;28;20078;-68
2021/06/09 05:54:40;;;;;;;19.25;17.25;;;18.20;76.70;;;16.38;79.05;96371.06;4985473;28;20038;-68
2021/06/09 05:57:07;;;;;;;20.75;18.50;;;18.40;76.70;;;16.46;78.19;96368.09;4964857;28;20142;-68
2021/06/09 05:59:33;;;;;;;18.75;16.75;;;18.40;76.00;;;16.54;78.30;96371.31;4972139;28;20049;-66
2021/06/09 06:02:00;;;;;;;20.10;17.92;;;18.60;75.50;;;16.68;78.11;96376.50;4991556;28;20515;-68
2021/06/09 06:04:26;;;;;;;19.30;17.40;;;18.70;75.00;;;16.80;78.38;96374.75;4975072;28;20092;-70
2021/06/09 06:06:52;;;;;;;20.60;16.98;;;18.90;74.90;;;16.93;77.73;96374.59;4975599;28;20029;-68
2021/06/09 06:09:17;;;;;;;18.73;16.67;;;19.10;74.30;;;17.08;77.49;96369.72;4971786;28;20035;-68
2021/06/09 06:11:43;;;;;;;17.98;16.05;;;19.40;73.60;;;17.25;77.44;96377.09;4997120;28;20604;-69
2021/06/09 06:14:11;;;;;;;18.63;16.42;;;19.50;73.70;;;17.38;77.37;96382.22;4990705;28;20038;-69
2021/06/09 06:16:38;;;;;;;19.10;17.10;;;19.60;72.10;;;17.49;76.79;96384.13;4976113;28;20021;-70
2021/06/09 06:19:04;;;;;;;18.85;16.85;;;19.80;72.30;;;17.61;76.90;96377.00;4975398;28;20029;-69
2021/06/09 06:21:30;;;;;;;17.88;15.80;;;19.90;71.80;;;17.75;76.64;96383.78;4975680;28;20034;-68
2021/06/09 06:23:56;;;;;;;20.73;16.15;;;20.10;71.90;;;17.91;76.49;96379.66;4991385;28;20038;-68
2021/06/09 06:26:22;;;;;;;18.40;16.40;;;20.30;71.00;;;18.05;76.41;96385.59;4991060;28;20038;-68
2021/06/09 06:28:49;;;;;;;18.35;16.45;;;20.40;70.60;;;18.17;75.85;96382.97;4996105;28;20397;-69
2021/06/09 06:31:20;;;;;;;18.73;16.17;;;20.70;70.10;;;18.32;74.32;96391.28;4991167;28;20029;-68
2021/06/09 06:33:46;;;;;;;18.27;15.70;;;21.00;68.30;;;18.45;74.83;96387.59;5012267;28;20033;-69
2021/06/09 06:36:14;;;;;;;17.58;15.80;;;21.10;68.30;;;18.61;75.33;96379.75;4994841;28;20033;-71
2021/06/09 06:38:40;;;;;;;17.00;14.90;;;21.30;67.60;;;18.77;74.17;96382.75;4976745;28;20124;-69
2021/06/09 06:41:07;;;;;;;21.98;15.30;;;21.50;67.40;;;18.92;74.05;96383.91;4970206;28;20046;-70
2021/06/09 06:43:33;;;;;;;19.23;15.95;;;21.50;67.40;;;19.09;73.99;96384.00;4972312;28;20157;-69
2021/06/09 06:45:58;;;;;;;17.65;15.60;;;21.70;66.80;;;19.24;73.95;96386.97;4974527;28;20030;-69
2021/06/09 06:48:24;;;;;;;18.73;16.08;;;21.90;66.20;;;19.42;73.18;96383.31;4982319;28;20385;-68
2021/06/09 06:50:50;;;;;;;17.88;15.88;;;22.10;66.10;;;19.62;73.71;96387.44;4986620;28;20038;-70
2021/06/09 06:53:16;;;;;;;17.50;15.25;;;22.30;64.80;;;19.77;72.43;96390.41;5003052;28;20342;-68
2021/06/09 06:55:41;;;;;;;17.92;15.93;;;22.50;63.80;;;19.96;71.56;96391.81;4974684;28;20026;-68
2021/06/09 06:58:07;;;;;;;19.83;15.13;;;22.70;64.20;;;20.12;70.99;96388.31;4981414;28;20124;-68
2021/06/09 07:00:33;;;;;;;17.00;14.65;;;22.70;62.00;;;20.26;70.53;96388.03;4985490;28;20883;-69
2021/06/09 07:02:59;;;;;;;16.48;14.38;;;23.00;61.60;;;20.39;70.51;96393.06;4991398;28;20029;-68
2021/06/09 07:05:27;;;;;;;19.85;14.88;;;23.10;61.80;;;20.54;69.47;96393.28;4989586;28;20049;-68
2021/06/09 07:07:56;;;;;;;18.05;14.02;;;23.30;60.70;;;20.67;68.81;96395.63;4991239;28;20047;-68
2021/06/09 07:10:23;;;;;;;16.05;14.35;;;23.60;61.20;;;20.79;68.91;96393.66;4993222;28;20042;-68
2021/06/09 07:12:49;;;;;;;16.50;14.05;;;23.50;60.50;;;20.87;68.34;96383.63;4986015;28;20069;-68
2021/06/09 07:15:17;;;;;;;14.85;13.00;;;23.70;60.00;;;20.97;67.89;96387.22;4990141;28;20041;-67
2021/06/09 07:17:51;;;;;;;16.73;13.55;;;23.90;59.70;;;21.10;66.84;96384.19;4990284;28;20128;-69
2021/06/09 07:20:19;;;;;;;18.00;14.07;;;24.10;58.50;;;21.23;67.27;96393.72;4971399;28;20069;-69
2021/06/09 07:22:45;;;;;;;15.70;13.90;;;24.10;58.30;;;21.35;67.91;96383.72;5007298;28;20048;-69
2021/06/09 07:25:11;;;;;;;16.67;13.75;;;24.40;57.70;;;21.48;67.42;96390.56;4972166;28;20039;-68
2021/06/09 07:27:41;;;;;;;16.63;13.77;;;24.50;57.00;;;21.61;65.08;96402.75;4990456;28;20094;-68
2021/06/09 07:30:08;;;;;;;15.35;12.82;;;24.70;55.20;;;21.75;65.85;96398.63;4987418;28;20502;-69
2021/06/09 07:32:37;;;;;;;16.27;13.85;;;25.00;55.30;;;21.90;65.92;96398.75;4974409;28;20117;-67
2021/06/09 07:35:04;;;;;;;17.08;15.13;;;25.10;55.80;;;22.01;65.21;96403.16;4973177;28;20046;-67
2021/06/09 07:37:30;;;;;;;16.13;14.43;;;25.10;54.50;;;22.14;64.92;96403.84;5003721;28;20133;-68
2021/06/09 07:39:58;;;;;;;14.43;13.02;;;25.40;54.20;;;22.29;64.79;96402.09;4974372;28;20065;-70
2021/06/09 07:42:26;;;;;;;15.13;13.55;;;25.70;53.70;;;22.45;64.31;96399.56;4975824;28;20148;-70
2021/06/09 07:45:06;;;;;;;14.75;13.18;;;26.00;53.30;;;22.62;62.54;96405.56;4975626;28;20042;-70
2021/06/09 07:47:33;;;;;;;14.27;12.88;;;26.20;52.60;;;22.75;63.44;96407.00;4975969;28;20445;-73
2021/06/09 07:49:59;;;;;;;20.08;14.13;;;26.10;52.50;;;22.88;63.30;96403.91;4981988;28;20065;-70
2021/06/09 07:52:26;;;;;;;14.27;12.82;;;26.20;51.20;;;23.00;62.41;96407.19;4994538;28;20472;-69
2021/06/09 07:54:54;;;;;;;15.27;13.00;;;26.50;51.40;;;23.18;62.48;96401.38;5009161;28;20515;-69
2021/06/09 07:57:21;;;;;;;11.85;10.65;;;26.80;51.20;;;23.37;63.17;96403.59;4993375;28;20030;-70
2021/06/09 07:59:48;;;;;;;14.27;12.77;;;27.10;51.80;;;23.59;62.54;96398.09;4993595;28;20041;-69
2021/06/09 08:02:17;;;;;;;14.90;13.18;;;27.20;49.80;;;23.71;59.90;96406.69;4994049;28;20060;-69
2021/06/09 08:04:43;;;;;;;16.63;13.20;;;27.10;49.90;;;23.79;61.42;96407.00;4992894;28;20034;-69
2021/06/09 08:07:09;;;;;;;14.38;12.90;;;27.10;49.80;;;23.92;61.16;96407.56;4974187;28;20517;-68
2021/06/09 08:09:34;;;;;;;14.52;13.05;;;27.20;49.80;;;24.06;60.66;96408.66;4992456;28;20060;-70
2021/06/09 08:12:03;;;;;;;13.85;12.45;;;27.20;49.70;;;24.23;60.82;96411.91;4989930;28;20101;-68
2021/06/09 08:14:29;;;;;;;14.52;12.15;;;27.60;49.60;;;24.40;60.88;96409.78;4976893;28;20030;-75
2021/06/09 08:16:54;;;;;;;16.17;11.48;;;27.90;48.70;;;24.61;60.61;96404.38;4994353;28;20400;-72
2021/06/09 08:19:21;;;;;;;13.77;12.48;;;28.10;49.10;;;24.86;59.67;96414.31;4978168;28;20390;-73
2021/06/09 08:21:47;;;;;;;15.07;12.95;;;28.20;47.50;;;25.01;59.23;96415.13;4990500;28;20469;-69
2021/06/09 08:24:12;;;;;;;13.85;12.55;;;28.30;47.90;;;25.16;58.42;96411.59;5000700;28;20034;-67
2021/06/09 08:26:38;;;;;;;13.77;12.38;;;28.20;46.90;;;25.32;58.51;96406.94;4990530;28;20038;-66
2021/06/09 08:29:05;;;;;;;14.25;12.85;;;28.50;47.30;;;25.44;57.63;96404.75;4979558;28;20531;-68
2021/06/09 08:31:32;;;;;;;14.48;12.40;;;28.50;47.80;;;25.63;56.90;96411.16;4974915;28;20158;-67
2021/06/09 08:33:59;;;;;;;14.27;12.68;;;28.60;47.10;;;25.72;56.92;96413.28;5015357;28;20045;-67
2021/06/09 08:36:25;;;;;;;13.15;11.55;;;28.50;47.60;;;25.74;56.11;96411.09;4978130;28;20062;-67
2021/06/09 08:38:55;;;;;;;13.13;11.82;;;28.30;47.90;;;25.76;56.48;96414.31;4977208;28;20425;-67
2021/06/09 08:41:24;;;;;;;13.90;11.50;;;28.30;49.20;;;25.76;55.47;96409.75;4978697;28;20038;-67
2021/06/09 08:43:50;;;;;;;12.32;11.13;;;28.20;48.40;;;25.80;56.47;96415.38;5009134;28;20042;-68
2021/06/09 08:46:17;;;;;;;13.57;12.18;;;28.20;49.80;;;25.89;55.90;96414.53;4989217;28;20104;-68
2021/06/09 08:48:45;;;;;;;11.98;10.73;;;28.60;48.20;;;25.97;56.30;96415.81;5003204;28;20041;-72
2021/06/09 08:51:16;;;;;;;10.98;9.90;;;28.70;48.50;;;26.00;55.40;96412.56;4978880;28;20029;-66
2021/06/09 08:53:47;;;;;;;14.05;10.90;;;28.60;48.10;;;26.05;53.71;96409.88;4992411;28;20037;-67
2021/06/09 08:56:12;;;;;;;12.73;11.38;;;28.60;46.70;;;26.05;54.70;96417.94;4977616;28;20033;-67
2021/06/09 08:58:38;;;;;;;11.55;10.40;;;28.50;47.40;;;26.18;55.02;96413.81;4991800;28;20347;-66
2021/06/09 09:01:08;;;;;;;12.82;10.13;;;28.80;47.70;;;26.34;54.05;96409.94;4957764;28;20027;-68
2021/06/09 09:03:38;;;;;;;11.57;10.32;;;29.20;47.30;;;26.51;52.62;96409.56;4992366;28;20461;-67
2021/06/09 09:06:04;;;;;;;10.82;9.35;;;29.40;45.00;;;26.69;53.82;96414.22;4992633;28;20048;-66
2021/06/09 09:08:30;;;;;;;10.25;9.13;;;29.80;44.80;;;26.83;53.18;96412.47;4992722;28;20063;-67
2021/06/09 09:10:56;;;;;;;12.13;10.23;;;30.10;42.90;;;27.03;53.32;96411.50;5000082;28;20031;-68
2021/06/09 09:13:24;;;;;;;11.05;9.95;;;30.20;43.90;;;27.14;52.60;96407.59;5001052;28;20050;-68
2021/06/09 09:15:49;;;;;;;14.18;9.82;;;30.00;44.10;;;27.24;52.32;96420.19;4992946;28;20050;-68
2021/06/09 09:18:15;;;;;;;10.95;9.85;;;30.20;44.00;;;27.39;51.87;96405.72;4992445;28;20046;-66
2021/06/09 09:20:43;;;;;;;9.85;8.85;;;30.50;43.20;;;27.60;51.11;96408.94;4970602;28;20452;-68
2021/06/09 09:23:30;;;;;;;11.90;9.85;;;30.80;42.50;;;27.73;47.97;96411.78;4988664;28;20046;-68
2021/06/09 09:25:58;;;;;;;10.82;9.70;;;30.90;40.80;;;27.74;49.40;96409.88;4994095;28;20068;-67
2021/06/09 09:28:32;;;;;;;10.18;9.00;;;30.70;41.30;;;27.89;48.05;96414.28;4972982;28;20038;-68
2021/06/09 09:31:15;;;;;;;9.35;8.35;;;31.20;40.10;;;28.12;49.22;96412.63;4989766;28;20041;-67
2021/06/09 09:33:41;;;;;;;9.20;7.70;;;31.20;42.50;;;28.33;50.05;96411.25;4994612;28;20113;-67
2021/06/09 09:36:36;;;;;;;8.80;7.90;;;31.50;40.40;;;28.60;46.60;96411.34;4988070;28;20497;-67
2021/06/09 09:39:02;;;;;;;10.38;7.93;;;32.00;39.60;;;28.84;48.13;96413.91;4997101;28;20088;-68
2021/06/09 09:41:34;;;;;;;10.35;8.55;;;32.10;38.10;;;28.92;45.84;96413.22;5004568;28;20033;-67
2021/06/09 09:44:01;;;;;;;9.45;7.97;;;31.60;39.30;;;29.07;47.30;96408.66;5004446;28;20129;-68
2021/06/09 09:46:31;;;;;;;8.15;7.03;;;32.00;38.80;;;29.27;46.30;96402.84;4990015;28;20619;-69
2021/06/09 09:49:05;;;;;;;9.40;7.78;;;32.20;37.50;;;29.41;43.19;96408.25;4989801;28;20046;-68
2021/06/09 09:51:41;;;;;;;12.32;9.07;;;32.20;36.50;;;29.57;44.18;96409.59;4989134;28;20026;-67
2021/06/09 09:54:08;;;;;;;8.80;7.53;;;32.40;37.30;;;29.69;45.66;96404.47;4989651;28;20034;-68
2021/06/09 09:56:37;;;;;;;7.70;7.00;;;32.70;37.60;;;29.90;44.34;96414.88;4972821;28;20042;-68
2021/06/09 09:59:10;;;;;;;8.53;7.73;;;33.10;36.40;;;30.19;42.75;96409.88;5004725;28;20475;-70
2021/06/09 10:01:39;;;;;;;8.68;7.80;;;33.80;35.00;;;30.45;44.83;96408.16;5007817;28;20485;-68
2021/06/09 10:04:06;;;;;;;10.48;7.35;;;33.90;34.90;;;30.84;44.16;96412.13;5001238;28;20041;-67
2021/06/09 10:06:33;;;;;;;12.40;7.15;;;34.50;34.10;;;31.26;43.93;96415.41;4990683;28;20025;-66
2021/06/09 10:09:24;;;;;;;10.38;7.97;;;34.90;33.70;;;31.65;39.90;96409.13;4987980;28;20118;-68
2021/06/09 10:11:59;;;;;;;7.85;7.07;;;34.80;32.80;;;32.00;39.81;96399.13;4999977;28;20065;-69
2021/06/09 10:14:29;;;;;;;10.85;6.78;;;35.10;32.80;;;32.33;40.22;96401.38;4976505;28;20414;-69
2021/06/09 10:17:06;;;;;;;7.47;6.78;;;35.50;33.00;;;32.66;38.33;96404.41;4993889;28;20033;-74
2021/06/09 10:19:44;;;;;;;8.07;6.93;;;35.90;32.40;;;33.03;39.12;96392.78;4977808;28;20523;-74
2021/06/09 10:22:11;;;;;;;8.13;6.68;;;36.50;31.90;;;33.37;40.26;96391.88;5008787;28;20038;-72